createdAt,value
2019-01-17T00:00:36.383Z,95.11
2019-01-17T00:03:35.831Z,95.39
2019-01-17T00:06:19.131Z,95.57
2019-01-17T00:09:09.195Z,95.51
2019-01-17T00:12:02.523Z,95.81
2019-01-17T00:14:48.994Z,96.01
2019-01-17T00:17:39.223Z,96.23
2019-01-17T00:20:37.233Z,96.45
2019-01-17T00:23:33.418Z,96.63
2019-01-17T00:26:26.425Z,96.64
2019-01-17T00:29:33.562Z,96.44
2019-01-17T00:32:26.908Z,96.37
2019-01-17T00:35:19.844Z,96.54
2019-01-17T00:38:19.345Z,96.77
2019-01-17T00:41:05.906Z,96.84
2019-01-17T00:43:59.410Z,96.92
2019-01-17T00:46:48.467Z,96.97
2019-01-17T00:49:41.743Z,96.95
2019-01-17T00:52:35.060Z,96.95
2019-01-17T00:55:29.084Z,96.91
2019-01-17T00:58:37.795Z,96.96
2019-01-17T01:01:24.224Z,97.09
2019-01-17T01:04:12.041Z,97.05
2019-01-17T01:07:02.245Z,96.97
2019-01-17T01:09:50.597Z,96.80
2019-01-17T01:12:49.667Z,96.71
2019-01-17T01:15:34.122Z,96.71
2019-01-17T01:18:23.145Z,96.75
2019-01-17T01:21:12.587Z,96.88
2019-01-17T01:24:05.905Z,96.86
2019-01-17T01:27:11.274Z,96.80
2019-01-17T01:29:53.951Z,96.91
2019-01-17T01:32:47.181Z,96.99
2019-01-17T01:35:36.328Z,96.72
2019-01-17T01:38:19.045Z,96.55
2019-01-17T01:41:24.593Z,96.51
2019-01-17T01:44:17.490Z,96.50
2019-01-17T01:47:12.764Z,96.62
2019-01-17T01:50:03.100Z,96.76
2019-01-17T01:52:46.889Z,96.98
2019-01-17T01:55:18.125Z,97.13
2019-01-17T01:57:49.398Z,97.18
2019-01-17T02:00:20.703Z,97.35
2019-01-17T02:02:51.963Z,97.47
2019-01-17T02:05:24.893Z,97.51
2019-01-17T02:07:56.148Z,97.59
2019-01-17T02:10:27.570Z,97.65
2019-01-17T02:13:00.592Z,97.79
2019-01-17T02:15:31.869Z,97.82
2019-01-17T02:18:03.120Z,97.82
2019-01-17T02:20:34.563Z,97.85
2019-01-17T02:23:06.094Z,97.81
2019-01-17T02:25:37.456Z,97.91
2019-01-17T02:28:08.713Z,97.95
2019-01-17T02:30:40.069Z,98.01
2019-01-17T02:33:11.542Z,98.25
2019-01-17T02:35:42.875Z,98.39
2019-01-17T02:38:14.218Z,98.48
2019-01-17T02:40:45.559Z,98.57
2019-01-17T02:43:18.525Z,98.59
2019-01-17T02:45:49.796Z,98.67
2019-01-17T02:48:21.044Z,98.66
2019-01-17T02:50:52.375Z,98.68
2019-01-17T02:53:23.660Z,98.60
2019-01-17T02:55:55.091Z,98.52
2019-01-17T02:58:26.525Z,98.47
2019-01-17T03:00:57.849Z,98.53
2019-01-17T03:03:29.148Z,98.38
2019-01-17T03:06:00.497Z,98.31
2019-01-17T03:08:31.910Z,98.21
2019-01-17T03:11:03.179Z,98.03
2019-01-17T03:13:34.593Z,97.84
2019-01-17T03:16:05.879Z,97.69
2019-01-17T03:18:37.245Z,97.63
2019-01-17T03:21:08.725Z,97.64
2019-01-17T03:23:40.015Z,97.70
2019-01-17T03:26:11.351Z,97.68
2019-01-17T03:28:42.739Z,97.75
2019-01-17T03:31:14.072Z,97.85
2019-01-17T03:33:45.455Z,97.97
2019-01-17T03:36:16.696Z,97.98
2019-01-17T03:38:48.034Z,98.00
2019-01-17T03:41:19.415Z,97.98
2019-01-17T03:43:50.655Z,97.92
2019-01-17T03:46:21.891Z,97.85
2019-01-17T03:48:53.527Z,97.84
2019-01-17T03:51:24.754Z,97.92
2019-01-17T03:53:55.992Z,97.91
2019-01-17T03:56:28.926Z,98.03
2019-01-17T03:59:00.227Z,98.08
2019-01-17T04:01:31.583Z,98.01
2019-01-17T04:04:02.967Z,98.20
2019-01-17T04:06:34.269Z,98.29
2019-01-17T04:09:07.472Z,98.65
2019-01-17T04:11:38.823Z,98.92
2019-01-17T04:14:10.081Z,99.17
2019-01-17T04:16:41.422Z,99.33
2019-01-17T04:19:13.198Z,99.40
2019-01-17T04:21:44.556Z,99.58
2019-01-17T04:24:17.486Z,99.79
2019-01-17T04:26:48.729Z,99.80
2019-01-17T04:29:19.968Z,99.78
2019-01-17T04:31:51.239Z,99.90
2019-01-17T04:34:22.485Z,99.93
2019-01-17T04:36:53.828Z,99.77
2019-01-17T04:39:25.121Z,100.00
2019-01-17T04:41:56.509Z,100.00
2019-01-17T04:44:27.934Z,100.00
2019-01-17T04:46:59.253Z,100.00
2019-01-17T04:49:30.601Z,100.00
2019-01-17T04:52:01.995Z,100.00
2019-01-17T04:54:33.322Z,100.00
2019-01-17T04:57:04.655Z,100.00
2019-01-17T04:59:35.928Z,100.00
2019-01-17T05:02:07.272Z,100.00
2019-01-17T05:04:38.527Z,100.00
2019-01-17T05:07:09.965Z,100.00
2019-01-17T05:09:41.607Z,100.00
2019-01-17T05:12:14.635Z,100.00
2019-01-17T05:14:45.846Z,100.00
2019-01-17T05:17:17.242Z,100.00
2019-01-17T05:19:48.539Z,100.00
2019-01-17T05:22:21.381Z,100.00
2019-01-17T05:24:52.868Z,100.00
2019-01-17T05:27:24.234Z,100.00
2019-01-17T05:29:55.486Z,100.00
2019-01-17T05:32:26.914Z,100.00
2019-01-17T05:34:58.285Z,100.00
2019-01-17T05:37:29.625Z,100.00
2019-01-17T05:40:01.015Z,100.00
2019-01-17T05:42:32.290Z,100.00
2019-01-17T05:45:03.989Z,100.00
2019-01-17T05:47:35.312Z,100.00
2019-01-17T05:50:07.807Z,100.00
2019-01-17T05:52:39.133Z,100.00
2019-01-17T05:55:10.668Z,100.00
2019-01-17T05:57:41.931Z,100.00
2019-01-17T06:00:18.744Z,100.00
2019-01-17T06:02:50.015Z,100.00
2019-01-17T06:05:21.344Z,100.00
2019-01-17T06:07:54.244Z,100.00
2019-01-17T06:10:25.673Z,100.00
2019-01-17T06:12:57.289Z,100.00
2019-01-17T06:15:28.845Z,100.00
2019-01-17T06:18:00.282Z,100.00
2019-01-17T06:20:31.572Z,100.00
2019-01-17T06:23:02.920Z,100.00
2019-01-17T06:25:34.287Z,100.00
2019-01-17T06:28:06.468Z,100.00
2019-01-17T06:30:37.790Z,100.00
2019-01-17T06:33:09.214Z,100.00
2019-01-17T06:35:40.493Z,100.00
2019-01-17T06:38:11.819Z,100.00
2019-01-17T06:40:43.191Z,100.00
2019-01-17T06:43:14.528Z,100.00
2019-01-17T06:45:45.890Z,100.00
2019-01-17T06:48:17.247Z,100.00
2019-01-17T06:50:48.498Z,100.00
2019-01-17T06:53:19.779Z,100.00
2019-01-17T06:55:51.246Z,100.00
2019-01-17T06:58:22.563Z,100.00
2019-01-17T07:00:53.847Z,100.00
2019-01-17T07:03:25.106Z,100.00
2019-01-17T07:05:56.372Z,100.00
2019-01-17T07:08:27.719Z,100.00
2019-01-17T07:10:59.120Z,100.00
2019-01-17T07:13:30.591Z,100.00
2019-01-17T07:16:01.967Z,100.00
2019-01-17T07:18:33.317Z,100.00
2019-01-17T07:21:04.715Z,99.96
2019-01-17T07:23:36.357Z,99.83
2019-01-17T07:26:07.624Z,100.00
2019-01-17T07:28:38.889Z,99.96
2019-01-17T07:31:10.212Z,99.42
2019-01-17T07:33:41.494Z,98.36
2019-01-17T07:36:12.855Z,97.74
2019-01-17T07:38:45.899Z,96.78
2019-01-17T07:41:17.203Z,96.06
2019-01-17T07:43:48.526Z,94.99
2019-01-17T07:46:19.844Z,94.15
2019-01-17T07:48:52.699Z,93.68
2019-01-17T07:51:23.952Z,92.96
2019-01-17T07:53:55.837Z,91.65
2019-01-17T07:56:27.394Z,91.08
2019-01-17T07:58:58.968Z,90.08
2019-01-17T08:01:30.256Z,89.72
2019-01-17T08:04:01.648Z,89.62
2019-01-17T08:06:33.019Z,89.38
2019-01-17T08:09:05.979Z,87.83
2019-01-17T08:11:37.279Z,87.40
2019-01-17T08:14:08.625Z,87.60
2019-01-17T08:16:40.027Z,87.75
2019-01-17T08:19:12.093Z,87.54
2019-01-17T08:21:43.388Z,87.09
2019-01-17T08:24:14.879Z,86.99
2019-01-17T08:26:46.232Z,86.79
2019-01-17T08:29:17.546Z,86.72
2019-01-17T08:31:48.894Z,86.15
2019-01-17T08:34:20.144Z,86.21
2019-01-17T08:36:51.388Z,86.59
2019-01-17T08:39:22.701Z,86.71
2019-01-17T08:41:54.094Z,86.55
2019-01-17T08:44:25.425Z,86.65
2019-01-17T08:46:56.834Z,86.63
2019-01-17T08:49:29.850Z,86.37
2019-01-17T08:52:01.104Z,86.00
2019-01-17T08:54:32.342Z,85.81
2019-01-17T08:57:03.716Z,85.58
2019-01-17T08:59:35.035Z,85.37
2019-01-17T09:02:06.408Z,85.55
2019-01-17T09:04:38.556Z,85.81
2019-01-17T09:07:10.110Z,85.90
2019-01-17T09:09:41.458Z,85.31
2019-01-17T09:12:13.174Z,85.79
2019-01-17T09:14:44.618Z,85.81
2019-01-17T09:17:15.910Z,85.50
2019-01-17T09:19:47.337Z,85.40
2019-01-17T09:22:18.748Z,85.30
2019-01-17T09:24:50.118Z,84.86
2019-01-17T09:27:22.304Z,84.52
2019-01-17T09:29:55.602Z,84.38
2019-01-17T09:32:27.949Z,84.25
2019-01-17T09:34:59.278Z,84.61
2019-01-17T09:37:30.600Z,84.37
2019-01-17T09:40:01.851Z,84.44
2019-01-17T09:42:33.208Z,84.39
2019-01-17T09:45:04.794Z,83.45
2019-01-17T09:47:36.141Z,83.97
2019-01-17T09:50:16.098Z,83.39
2019-01-17T09:52:47.350Z,83.25
2019-01-17T09:55:18.625Z,83.51
2019-01-17T09:57:49.913Z,83.59
2019-01-17T10:00:29.389Z,83.81
2019-01-17T10:03:00.789Z,83.11
2019-01-17T10:05:32.025Z,81.94
2019-01-17T10:08:03.288Z,80.12
2019-01-17T10:10:34.627Z,78.93
2019-01-17T10:13:06.139Z,77.52
2019-01-17T10:15:50.672Z,76.93
2019-01-17T10:19:18.243Z,75.97
2019-01-17T10:22:36.408Z,75.31
2019-01-17T10:25:45.712Z,75.31
2019-01-17T10:29:06.711Z,74.14
2019-01-17T10:32:27.259Z,73.83
2019-01-17T10:35:54.778Z,72.58
2019-01-17T10:39:07.133Z,73.68
2019-01-17T10:42:07.960Z,71.16
2019-01-17T10:44:47.794Z,70.23
2019-01-17T10:48:00.171Z,70.48
2019-01-17T10:51:04.702Z,68.97
2019-01-17T10:54:19.701Z,68.24
2019-01-17T10:57:20.771Z,67.94
2019-01-17T11:00:35.980Z,67.97
2019-01-17T11:03:37.481Z,67.97
2019-01-17T11:06:51.131Z,66.47
2019-01-17T11:09:30.896Z,67.00
2019-01-17T11:12:38.935Z,65.42
2019-01-17T11:16:06.753Z,65.42
2019-01-17T11:19:04.110Z,64.61
2019-01-17T11:22:33.645Z,64.82
2019-01-17T11:25:49.289Z,64.36
2019-01-17T11:29:01.396Z,63.64
2019-01-17T11:32:13.617Z,64.19
2019-01-17T11:35:49.033Z,63.21
2019-01-17T11:38:59.028Z,62.62
2019-01-17T11:42:03.042Z,62.62
2019-01-17T11:45:04.504Z,62.44
2019-01-17T11:48:19.926Z,62.31
2019-01-17T11:51:31.506Z,63.49
2019-01-17T11:54:25.874Z,62.08
2019-01-17T11:57:30.387Z,62.08
2019-01-17T12:00:14.743Z,62.39
2019-01-17T12:03:26.262Z,62.39
2019-01-17T12:05:57.496Z,63.07
2019-01-17T12:08:28.799Z,63.15
2019-01-17T12:11:00.258Z,62.64
2019-01-17T12:13:31.720Z,62.64
2019-01-17T12:16:03.068Z,61.60
2019-01-17T12:18:35.902Z,60.93
2019-01-17T12:21:07.323Z,61.31
2019-01-17T12:23:38.659Z,61.75
2019-01-17T12:26:09.981Z,61.96
2019-01-17T12:28:41.344Z,61.05
2019-01-17T12:31:12.692Z,61.18
2019-01-17T12:33:44.032Z,59.79
2019-01-17T12:36:15.393Z,59.79
2019-01-17T12:38:46.631Z,60.04
2019-01-17T12:41:17.964Z,59.79
2019-01-17T12:43:50.825Z,59.84
2019-01-17T12:46:22.084Z,59.48
2019-01-17T12:48:53.369Z,58.91
2019-01-17T12:51:24.695Z,60.03
2019-01-17T12:53:56.008Z,59.32
2019-01-17T12:56:27.242Z,59.30
2019-01-17T12:58:58.473Z,60.88
2019-01-17T13:01:31.406Z,59.61
2019-01-17T13:04:02.755Z,59.61
2019-01-17T13:06:33.998Z,58.50
2019-01-17T13:09:08.621Z,58.70
2019-01-17T13:11:39.927Z,59.18
2019-01-17T13:14:12.960Z,58.60
2019-01-17T13:16:44.271Z,58.25
2019-01-17T13:19:15.612Z,58.08
2019-01-17T13:21:46.958Z,58.64
2019-01-17T13:24:18.543Z,59.14
2019-01-17T13:26:49.916Z,57.96
2019-01-17T13:29:21.284Z,59.05
2019-01-17T13:31:52.531Z,59.05
2019-01-17T13:34:23.782Z,58.60
2019-01-17T13:36:56.357Z,57.72
2019-01-17T13:39:27.700Z,58.11
2019-01-17T13:41:59.141Z,58.90
2019-01-17T13:44:30.503Z,59.58
2019-01-17T13:47:01.831Z,58.77
2019-01-17T13:49:33.198Z,59.67
2019-01-17T13:52:04.754Z,58.92
2019-01-17T13:54:36.020Z,60.06
2019-01-17T13:57:07.830Z,59.35
2019-01-17T13:59:39.113Z,58.40
2019-01-17T14:02:10.342Z,59.16
2019-01-17T14:04:41.573Z,59.16
2019-01-17T14:07:12.814Z,59.10
2019-01-17T14:09:44.098Z,58.63
2019-01-17T14:12:15.529Z,59.15
2019-01-17T14:14:46.791Z,59.15
2019-01-17T14:17:18.504Z,59.58
2019-01-17T14:19:49.814Z,59.29
2019-01-17T14:22:21.143Z,59.63
2019-01-17T14:24:52.476Z,59.27
2019-01-17T14:27:23.779Z,58.99
2019-01-17T14:29:55.625Z,59.32
2019-01-17T14:32:26.993Z,59.96
2019-01-17T14:34:58.327Z,59.84
2019-01-17T14:37:29.716Z,59.68
2019-01-17T14:40:01.015Z,59.61
2019-01-17T14:42:32.356Z,60.23
2019-01-17T14:45:07.445Z,60.52
2019-01-17T14:47:38.789Z,60.99
2019-01-17T14:50:13.860Z,61.24
2019-01-17T14:52:45.131Z,61.84
2019-01-17T14:55:16.370Z,61.89
2019-01-17T14:57:47.719Z,62.34
2019-01-17T15:00:21.011Z,62.44
2019-01-17T15:02:52.263Z,62.52
2019-01-17T15:05:23.589Z,64.16
2019-01-17T15:07:54.928Z,65.88
2019-01-17T15:10:37.949Z,67.07
2019-01-17T15:13:09.334Z,67.98
2019-01-17T15:15:40.673Z,68.42
2019-01-17T15:18:12.022Z,68.62
2019-01-17T15:20:43.543Z,69.52
2019-01-17T15:23:16.447Z,71.65
2019-01-17T15:25:47.851Z,72.67
2019-01-17T15:28:19.214Z,72.84
2019-01-17T15:30:50.523Z,72.79
2019-01-17T15:33:21.844Z,72.72
2019-01-17T15:35:53.137Z,72.03
2019-01-17T15:38:24.487Z,72.35
2019-01-17T15:40:55.882Z,72.07
2019-01-17T15:43:27.189Z,73.24
2019-01-17T15:45:58.518Z,74.35
2019-01-17T15:48:30.047Z,75.38
2019-01-17T15:51:01.356Z,76.58
2019-01-17T15:53:32.681Z,76.90
2019-01-17T15:56:04.008Z,77.11
2019-01-17T15:58:35.279Z,77.92
2019-01-17T16:01:06.700Z,78.17
2019-01-17T16:03:38.024Z,78.76
2019-01-17T16:06:09.282Z,79.15
2019-01-17T16:08:40.552Z,79.31
2019-01-17T16:11:12.309Z,79.64
2019-01-17T16:13:43.664Z,80.09
2019-01-17T16:16:15.044Z,80.53
2019-01-17T16:18:46.349Z,81.18
2019-01-17T16:21:17.669Z,81.98
2019-01-17T16:23:48.932Z,82.26
2019-01-17T16:26:20.343Z,82.98
2019-01-17T16:28:54.578Z,83.47
2019-01-17T16:31:28.708Z,84.33
2019-01-17T16:34:00.144Z,84.89
2019-01-17T16:36:33.008Z,85.12
2019-01-17T16:39:07.710Z,85.06
2019-01-17T16:41:39.041Z,85.03
2019-01-17T16:44:10.395Z,85.34
2019-01-17T16:46:41.758Z,86.00
2019-01-17T16:49:13.120Z,86.30
2019-01-17T16:51:44.417Z,86.53
2019-01-17T16:54:15.792Z,86.94
2019-01-17T16:56:47.239Z,87.35
2019-01-17T16:59:18.511Z,87.67
2019-01-17T17:01:49.767Z,87.76
2019-01-17T17:04:21.079Z,88.07
2019-01-17T17:06:52.444Z,88.12
2019-01-17T17:09:23.773Z,88.33
2019-01-17T17:11:55.030Z,88.46
2019-01-17T17:14:26.296Z,88.43
2019-01-17T17:16:57.643Z,88.49
2019-01-17T17:19:30.594Z,88.84
2019-01-17T17:22:01.959Z,89.15
2019-01-17T17:24:33.219Z,89.51
2019-01-17T17:27:04.582Z,89.95
2019-01-17T17:29:36.116Z,90.22
2019-01-17T17:32:07.378Z,90.48
2019-01-17T17:34:38.714Z,90.77
2019-01-17T17:37:10.059Z,91.01
2019-01-17T17:39:41.327Z,91.25
2019-01-17T17:42:14.228Z,91.52
2019-01-17T17:44:45.517Z,92.01
2019-01-17T17:47:16.767Z,92.00
2019-01-17T17:49:48.241Z,91.67
2019-01-17T17:52:19.578Z,91.42
2019-01-17T17:54:50.934Z,91.01
2019-01-17T17:57:22.280Z,90.32
2019-01-17T17:59:53.677Z,89.68
2019-01-17T18:02:31.830Z,89.09
2019-01-17T18:05:05.592Z,88.63
2019-01-17T18:07:37.089Z,88.23
2019-01-17T18:10:11.987Z,88.23
2019-01-17T18:12:43.406Z,88.14
2019-01-17T18:15:15.341Z,88.28
2019-01-17T18:17:46.705Z,88.31
2019-01-17T18:20:18.282Z,88.14
2019-01-17T18:22:49.618Z,87.53
2019-01-17T18:25:20.960Z,86.97
2019-01-17T18:27:52.311Z,86.52
2019-01-17T18:30:23.798Z,86.26
2019-01-17T18:32:55.290Z,86.04
2019-01-17T18:35:26.581Z,85.55
2019-01-17T18:37:57.879Z,85.34
2019-01-17T18:40:29.302Z,85.25
2019-01-17T18:43:00.637Z,85.19
2019-01-17T18:45:31.979Z,85.07
2019-01-17T18:48:03.609Z,84.58
2019-01-17T18:50:35.233Z,84.18
2019-01-17T18:53:06.633Z,83.65
2019-01-17T18:55:37.896Z,83.50
2019-01-17T18:58:15.395Z,83.56
2019-01-17T19:00:42.226Z,83.66
2019-01-17T19:03:13.560Z,83.91
2019-01-17T19:05:44.824Z,83.69
2019-01-17T19:08:16.218Z,83.33
2019-01-17T19:10:47.622Z,83.50
2019-01-17T19:13:19.179Z,84.03
2019-01-17T19:15:50.674Z,84.57
2019-01-17T19:18:22.147Z,85.66
2019-01-17T19:20:53.404Z,86.72
2019-01-17T19:23:24.734Z,87.93
2019-01-17T19:25:56.076Z,89.00
2019-01-17T19:28:27.478Z,91.12
2019-01-17T19:30:59.259Z,92.65
2019-01-17T19:33:31.830Z,93.61
2019-01-17T19:36:03.204Z,94.71
2019-01-17T19:38:34.603Z,94.32
2019-01-17T19:41:07.700Z,94.77
2019-01-17T19:43:39.018Z,95.08
2019-01-17T19:46:10.469Z,95.71
2019-01-17T19:48:41.812Z,96.28
2019-01-17T19:51:13.264Z,96.79
2019-01-17T19:53:44.699Z,97.17
2019-01-17T19:56:15.956Z,97.68
2019-01-17T19:58:47.261Z,97.99
2019-01-17T20:01:18.557Z,98.17
2019-01-17T20:03:49.888Z,98.66
2019-01-17T20:06:21.341Z,99.06
2019-01-17T20:08:52.611Z,99.59
2019-01-17T20:11:23.856Z,99.72
2019-01-17T20:13:55.275Z,99.62
2019-01-17T20:16:26.515Z,99.91
2019-01-17T20:18:57.786Z,99.96
2019-01-17T20:21:29.211Z,100.00
2019-01-17T20:24:02.100Z,100.00
2019-01-17T20:26:33.382Z,100.00
2019-01-17T20:29:04.745Z,100.00
2019-01-17T20:31:36.180Z,100.00
2019-01-17T20:34:07.526Z,100.00
2019-01-17T20:36:38.903Z,99.65
2019-01-17T20:39:10.414Z,98.66
2019-01-17T20:41:41.795Z,97.91
2019-01-17T20:44:13.098Z,97.26
2019-01-17T20:46:44.505Z,96.65
2019-01-17T20:49:15.819Z,96.10
2019-01-17T20:51:47.064Z,95.65
2019-01-17T20:54:21.553Z,95.22
2019-01-17T20:56:53.114Z,94.82
2019-01-17T20:59:26.115Z,94.36
2019-01-17T21:02:19.536Z,94.12
2019-01-17T21:04:52.181Z,94.19
2019-01-17T21:07:23.573Z,94.21
2019-01-17T21:09:54.873Z,94.03
2019-01-17T21:12:26.137Z,94.09
2019-01-17T21:14:57.440Z,93.96
2019-01-17T21:17:30.055Z,93.62
2019-01-17T21:20:01.390Z,93.61
2019-01-17T21:22:32.743Z,93.64
2019-01-17T21:25:04.343Z,93.58
2019-01-17T21:27:35.896Z,93.09
2019-01-17T21:30:11.185Z,92.69
2019-01-17T21:32:42.438Z,92.70
2019-01-17T21:35:13.845Z,92.23
2019-01-17T21:37:46.009Z,91.47
2019-01-17T21:40:18.742Z,89.92
2019-01-17T21:42:50.069Z,89.34
2019-01-17T21:45:21.457Z,89.00
2019-01-17T21:47:52.686Z,87.09
2019-01-17T21:50:26.275Z,86.09
2019-01-17T21:52:57.560Z,85.46
2019-01-17T21:55:32.121Z,84.89
2019-01-17T21:58:03.419Z,83.60
2019-01-17T22:00:35.663Z,83.93
2019-01-17T22:03:07.914Z,83.14
2019-01-17T22:05:39.136Z,82.54
2019-01-17T22:08:10.447Z,82.38
2019-01-17T22:10:41.777Z,81.84
2019-01-17T22:13:13.244Z,81.92
2019-01-17T22:15:44.468Z,82.31
2019-01-17T22:18:17.454Z,80.84
2019-01-17T22:20:48.952Z,81.13
2019-01-17T22:23:20.347Z,81.03
2019-01-17T22:25:51.708Z,80.76
2019-01-17T22:28:22.947Z,80.49
2019-01-17T22:30:54.677Z,80.06
2019-01-17T22:33:26.088Z,80.21
2019-01-17T22:35:59.041Z,80.44
2019-01-17T22:38:30.496Z,80.39
2019-01-17T22:41:01.938Z,80.61
2019-01-17T22:43:44.003Z,80.72
2019-01-17T22:46:15.185Z,80.81
2019-01-17T22:48:46.644Z,80.97
2019-01-17T22:51:19.609Z,80.39
2019-01-17T22:53:50.876Z,79.78
2019-01-17T22:56:22.573Z,79.63
2019-01-17T22:58:53.835Z,79.36
2019-01-17T23:01:28.492Z,78.44
2019-01-17T23:04:02.350Z,77.96
2019-01-17T23:06:33.635Z,76.24
2019-01-17T23:09:07.981Z,76.11
2019-01-17T23:11:39.403Z,75.76
2019-01-17T23:14:10.707Z,75.54
2019-01-17T23:16:43.182Z,75.26
2019-01-17T23:19:14.600Z,74.51
2019-01-17T23:21:47.471Z,74.25
2019-01-17T23:24:18.991Z,75.34
2019-01-17T23:26:52.477Z,73.63
2019-01-17T23:29:23.925Z,74.38
2019-01-17T23:31:55.181Z,74.53
2019-01-17T23:34:26.537Z,74.41
2019-01-17T23:36:57.868Z,75.18
2019-01-17T23:39:36.169Z,74.17
2019-01-17T23:42:07.541Z,74.64
2019-01-17T23:44:38.819Z,74.72
2019-01-17T23:47:10.230Z,72.94
2019-01-17T23:49:42.595Z,72.72
2019-01-17T23:52:13.839Z,72.41
2019-01-17T23:54:45.179Z,72.80
2019-01-17T23:57:16.541Z,73.41
2019-01-17T23:59:47.920Z,73.44
